N5021Q KPDK-KMEM
Flight info
| Callsign | N5021Q |
|---|---|
| Flight time | 1h 26m |
| Altitude | 30000 |
| Route | WETWO GAD VANZE VANZE3 |
| Aircraft | SF50/L-SDGRWY/L |
Departure
| Time | 2026-05-07 02:02 |
|---|---|
| Airport | DeKalb Peachtree Airport (KPDK) |
Arrival
| Time | 2026-05-07 03:29 |
|---|---|
| Airport | Memphis International Airport (KMEM) |
| Time | Latitude | Longitude | Altitude | Speed | Heading |
|---|---|---|---|---|---|
| 2026-05-07 01:50 | 33.88302 | -84.30170 | 993 ft | 0 kts | 178° |
| 2026-05-07 01:58 | 33.88295 | -84.30170 | 993 ft | 6 kts | 177° |
| 2026-05-07 01:58 | 33.88278 | -84.30140 | 991 ft | 3 kts | 94° |
| 2026-05-07 01:58 | 33.88268 | -84.30117 | 992 ft | 7 kts | 153° |
| 2026-05-07 01:58 | 33.88226 | -84.30098 | 993 ft | 5 kts | 130° |
| 2026-05-07 01:59 | 33.88218 | -84.30062 | 992 ft | 4 kts | 111° |
| 2026-05-07 01:59 | 33.88198 | -84.30014 | 993 ft | 8 kts | 111° |
| 2026-05-07 01:59 | 33.88176 | -84.29943 | 993 ft | 8 kts | 110° |
| 2026-05-07 01:59 | 33.88168 | -84.29918 | 994 ft | 0 kts | 114° |
| 2026-05-07 02:01 | 33.88158 | -84.29887 | 993 ft | 13 kts | 109° |
| 2026-05-07 02:01 | 33.88123 | -84.29837 | 993 ft | 3 kts | 178° |
| 2026-05-07 02:01 | 33.88089 | -84.29851 | 994 ft | 21 kts | 201° |
| 2026-05-07 02:02 | 33.87815 | -84.29971 | 999 ft | 62 kts | 201° |
| 2026-05-07 02:02 | 33.87212 | -84.30241 | 1106 ft | 115 kts | 199° |
| 2026-05-07 02:02 | 33.86455 | -84.30582 | 1742 ft | 113 kts | 205° |
| 2026-05-07 02:02 | 33.85698 | -84.31092 | 2310 ft | 135 kts | 227° |
| 2026-05-07 02:03 | 33.85395 | -84.32190 | 2985 ft | 156 kts | 263° |
| 2026-05-07 02:03 | 33.85398 | -84.33702 | 3000 ft | 204 kts | 264° |
| 2026-05-07 02:03 | 33.85379 | -84.35437 | 3800 ft | 196 kts | 263° |
| 2026-05-07 02:03 | 33.85383 | -84.36951 | 4851 ft | 167 kts | 264° |
| 2026-05-07 02:04 | 33.85353 | -84.38223 | 5810 ft | 141 kts | 256° |
| 2026-05-07 02:04 | 33.85176 | -84.39415 | 6285 ft | 150 kts | 255° |
| 2026-05-07 02:04 | 33.85059 | -84.40666 | 6761 ft | 153 kts | 261° |
| 2026-05-07 02:04 | 33.84890 | -84.41903 | 7300 ft | 148 kts | 253° |
| 2026-05-07 02:05 | 33.84645 | -84.43121 | 7779 ft | 152 kts | 254° |
| 2026-05-07 02:05 | 33.84412 | -84.44374 | 8277 ft | 154 kts | 254° |
| 2026-05-07 02:05 | 33.84202 | -84.45609 | 8799 ft | 153 kts | 256° |
| 2026-05-07 02:05 | 33.83967 | -84.46865 | 9304 ft | 155 kts | 254° |
| 2026-05-07 02:06 | 33.83705 | -84.48126 | 9828 ft | 156 kts | 254° |
| 2026-05-07 02:06 | 33.83439 | -84.49394 | 10315 ft | 157 kts | 254° |
| 2026-05-07 02:06 | 33.83168 | -84.50675 | 10784 ft | 159 kts | 254° |
| 2026-05-07 02:06 | 33.82900 | -84.51971 | 11204 ft | 161 kts | 254° |
| 2026-05-07 02:07 | 33.82630 | -84.53291 | 11585 ft | 163 kts | 254° |
| 2026-05-07 02:07 | 33.82062 | -84.55931 | 12458 ft | 163 kts | 254° |
| 2026-05-07 02:07 | 33.81764 | -84.57264 | 12851 ft | 166 kts | 255° |
| 2026-05-07 02:08 | 33.81465 | -84.58610 | 13284 ft | 167 kts | 254° |
| 2026-05-07 02:08 | 33.81226 | -84.59988 | 13684 ft | 170 kts | 259° |
| 2026-05-07 02:08 | 33.81021 | -84.61389 | 14050 ft | 171 kts | 258° |
| 2026-05-07 02:08 | 33.80805 | -84.62790 | 14438 ft | 170 kts | 258° |
| 2026-05-07 02:09 | 33.80587 | -84.64180 | 14816 ft | 170 kts | 258° |
| 2026-05-07 02:09 | 33.80367 | -84.65579 | 15201 ft | 170 kts | 259° |
| 2026-05-07 02:09 | 33.80145 | -84.66976 | 15603 ft | 170 kts | 259° |
| 2026-05-07 02:09 | 33.79924 | -84.68374 | 16012 ft | 170 kts | 260° |
| 2026-05-07 02:10 | 33.79814 | -84.69779 | 16368 ft | 171 kts | 276° |
| 2026-05-07 02:10 | 33.80059 | -84.71182 | 16747 ft | 171 kts | 276° |
| 2026-05-07 02:10 | 33.80237 | -84.72591 | 17139 ft | 171 kts | 276° |
| 2026-05-07 02:10 | 33.80420 | -84.74001 | 17519 ft | 171 kts | 276° |
| 2026-05-07 02:11 | 33.80607 | -84.75412 | 17914 ft | 171 kts | 276° |
| 2026-05-07 02:11 | 33.80796 | -84.76819 | 18294 ft | 171 kts | 276° |
| 2026-05-07 02:11 | 33.80983 | -84.78230 | 18610 ft | 171 kts | 276° |
| 2026-05-07 02:11 | 33.81171 | -84.79640 | 18926 ft | 171 kts | 276° |
| 2026-05-07 02:12 | 33.81359 | -84.81050 | 19235 ft | 171 kts | 276° |
| 2026-05-07 02:12 | 33.81547 | -84.82462 | 19538 ft | 171 kts | 276° |
| 2026-05-07 02:12 | 33.81736 | -84.83879 | 19844 ft | 172 kts | 276° |
| 2026-05-07 02:12 | 33.81924 | -84.85297 | 20140 ft | 172 kts | 276° |
| 2026-05-07 02:13 | 33.82115 | -84.86719 | 20433 ft | 172 kts | 276° |
| 2026-05-07 02:13 | 33.82303 | -84.88142 | 20726 ft | 173 kts | 276° |
| 2026-05-07 02:13 | 33.82494 | -84.89567 | 21028 ft | 172 kts | 276° |
| 2026-05-07 02:13 | 33.82680 | -84.90982 | 21346 ft | 171 kts | 276° |
| 2026-05-07 02:14 | 33.82866 | -84.92388 | 21655 ft | 170 kts | 276° |
| 2026-05-07 02:14 | 33.83050 | -84.93783 | 21965 ft | 169 kts | 276° |
| 2026-05-07 02:14 | 33.83235 | -84.95171 | 22279 ft | 168 kts | 276° |
| 2026-05-07 02:14 | 33.83415 | -84.96551 | 22594 ft | 166 kts | 276° |
| 2026-05-07 02:15 | 33.83595 | -84.97920 | 22915 ft | 165 kts | 276° |
| 2026-05-07 02:15 | 33.83774 | -84.99282 | 23234 ft | 165 kts | 276° |
| 2026-05-07 02:15 | 33.83954 | -85.00637 | 23554 ft | 163 kts | 276° |
| 2026-05-07 02:15 | 33.84131 | -85.01984 | 23807 ft | 163 kts | 276° |
| 2026-05-07 02:16 | 33.84308 | -85.03329 | 24059 ft | 163 kts | 276° |
| 2026-05-07 02:16 | 33.84486 | -85.04672 | 24302 ft | 163 kts | 276° |
| 2026-05-07 02:16 | 33.84661 | -85.05998 | 24607 ft | 159 kts | 275° |
| 2026-05-07 02:16 | 33.84832 | -85.07316 | 24840 ft | 160 kts | 275° |
| 2026-05-07 02:17 | 33.85006 | -85.08634 | 25081 ft | 160 kts | 275° |
| 2026-05-07 02:17 | 33.85178 | -85.09955 | 25318 ft | 160 kts | 275° |
| 2026-05-07 02:17 | 33.85350 | -85.11276 | 25572 ft | 160 kts | 275° |
| 2026-05-07 02:17 | 33.85522 | -85.12595 | 25811 ft | 160 kts | 275° |
| 2026-05-07 02:18 | 33.85692 | -85.13899 | 26052 ft | 160 kts | 275° |
| 2026-05-07 02:18 | 33.85864 | -85.15221 | 26296 ft | 160 kts | 274° |
| 2026-05-07 02:18 | 33.86036 | -85.16536 | 26585 ft | 158 kts | 273° |
| 2026-05-07 02:18 | 33.86205 | -85.17846 | 26825 ft | 159 kts | 274° |
| 2026-05-07 02:19 | 33.86375 | -85.19158 | 27049 ft | 159 kts | 273° |
| 2026-05-07 02:19 | 33.86547 | -85.20470 | 27297 ft | 159 kts | 273° |
| 2026-05-07 02:19 | 33.86717 | -85.21783 | 27541 ft | 159 kts | 273° |
| 2026-05-07 02:19 | 33.86889 | -85.23096 | 27794 ft | 159 kts | 273° |
| 2026-05-07 02:20 | 33.87059 | -85.24409 | 28045 ft | 159 kts | 273° |
| 2026-05-07 02:20 | 33.87230 | -85.25726 | 28290 ft | 159 kts | 273° |
| 2026-05-07 02:20 | 33.87400 | -85.27043 | 28550 ft | 159 kts | 273° |
| 2026-05-07 02:20 | 33.87573 | -85.28362 | 28804 ft | 160 kts | 273° |
| 2026-05-07 02:21 | 33.87743 | -85.29682 | 29058 ft | 160 kts | 273° |
| 2026-05-07 02:21 | 33.87913 | -85.31005 | 29318 ft | 160 kts | 273° |
| 2026-05-07 02:21 | 33.88082 | -85.32328 | 29583 ft | 160 kts | 273° |
| 2026-05-07 02:21 | 33.88254 | -85.33652 | 29842 ft | 160 kts | 273° |
| 2026-05-07 02:22 | 33.88424 | -85.34999 | 29940 ft | 168 kts | 273° |
| 2026-05-07 02:22 | 33.88606 | -85.36428 | 29952 ft | 177 kts | 273° |
| 2026-05-07 02:22 | 33.88798 | -85.37926 | 29952 ft | 185 kts | 273° |
| 2026-05-07 02:22 | 33.88999 | -85.39483 | 29952 ft | 191 kts | 274° |
| 2026-05-07 02:23 | 33.89206 | -85.41088 | 29953 ft | 197 kts | 274° |
| 2026-05-07 02:23 | 33.89415 | -85.42737 | 29938 ft | 202 kts | 273° |
| 2026-05-07 02:23 | 33.89631 | -85.44422 | 29943 ft | 206 kts | 273° |
| 2026-05-07 02:23 | 33.89853 | -85.46143 | 29952 ft | 210 kts | 273° |
| 2026-05-07 02:24 | 33.90077 | -85.47900 | 29945 ft | 214 kts | 273° |
| 2026-05-07 02:24 | 33.90305 | -85.49697 | 29945 ft | 220 kts | 273° |
| 2026-05-07 02:24 | 33.90540 | -85.51536 | 29947 ft | 225 kts | 273° |
| 2026-05-07 02:24 | 33.90778 | -85.53413 | 29946 ft | 229 kts | 273° |
| 2026-05-07 02:25 | 33.91021 | -85.55317 | 29947 ft | 232 kts | 273° |
| 2026-05-07 02:25 | 33.91266 | -85.57245 | 29949 ft | 234 kts | 273° |
| 2026-05-07 02:25 | 33.91429 | -85.58530 | 29943 ft | 235 kts | 273° |
| 2026-05-07 02:25 | 33.91756 | -85.61124 | 29945 ft | 238 kts | 273° |
| 2026-05-07 02:26 | 33.92005 | -85.63099 | 29942 ft | 239 kts | 274° |
| 2026-05-07 02:26 | 33.92257 | -85.65085 | 29947 ft | 241 kts | 273° |
| 2026-05-07 02:26 | 33.92508 | -85.67080 | 29944 ft | 242 kts | 273° |
| 2026-05-07 02:26 | 33.92759 | -85.69083 | 29947 ft | 242 kts | 273° |
| 2026-05-07 02:27 | 33.93012 | -85.71094 | 29940 ft | 243 kts | 273° |
| 2026-05-07 02:27 | 33.93183 | -85.72454 | 29941 ft | 244 kts | 273° |
| 2026-05-07 02:27 | 33.93437 | -85.74471 | 29942 ft | 244 kts | 273° |
| 2026-05-07 02:27 | 33.93690 | -85.76493 | 29942 ft | 244 kts | 273° |
| 2026-05-07 02:28 | 33.93944 | -85.78519 | 29943 ft | 245 kts | 273° |
| 2026-05-07 02:28 | 33.94197 | -85.80552 | 29942 ft | 246 kts | 273° |
| 2026-05-07 02:28 | 33.94452 | -85.82591 | 29942 ft | 246 kts | 273° |
| 2026-05-07 02:28 | 33.94707 | -85.84633 | 29944 ft | 247 kts | 273° |
| 2026-05-07 02:29 | 33.94961 | -85.86675 | 29939 ft | 247 kts | 273° |
| 2026-05-07 02:29 | 33.95215 | -85.88722 | 29940 ft | 247 kts | 273° |
| 2026-05-07 02:29 | 33.95469 | -85.90771 | 29941 ft | 248 kts | 273° |
| 2026-05-07 02:29 | 33.95719 | -85.92794 | 29939 ft | 248 kts | 273° |
| 2026-05-07 02:30 | 33.95973 | -85.94847 | 29935 ft | 248 kts | 273° |
| 2026-05-07 02:30 | 33.96226 | -85.96897 | 29935 ft | 248 kts | 273° |
| 2026-05-07 02:30 | 33.96479 | -85.98949 | 29934 ft | 248 kts | 273° |
| 2026-05-07 02:30 | 33.96732 | -86.00999 | 29934 ft | 247 kts | 273° |
| 2026-05-07 02:31 | 33.96985 | -86.03049 | 29934 ft | 247 kts | 273° |
| 2026-05-07 02:31 | 33.97235 | -86.05097 | 29934 ft | 247 kts | 273° |
| 2026-05-07 02:31 | 33.97487 | -86.07145 | 29934 ft | 247 kts | 273° |
| 2026-05-07 02:31 | 33.97834 | -86.09182 | 29929 ft | 250 kts | 279° |
| 2026-05-07 02:32 | 33.98346 | -86.11190 | 29926 ft | 251 kts | 280° |
| 2026-05-07 02:32 | 33.98838 | -86.13201 | 29926 ft | 250 kts | 279° |
| 2026-05-07 02:32 | 33.99330 | -86.15213 | 29923 ft | 250 kts | 280° |
| 2026-05-07 02:32 | 33.99827 | -86.17223 | 29933 ft | 251 kts | 280° |
| 2026-05-07 02:33 | 34.00326 | -86.19238 | 29921 ft | 250 kts | 278° |
| 2026-05-07 02:33 | 34.00822 | -86.21244 | 29932 ft | 250 kts | 279° |
| 2026-05-07 02:33 | 34.01315 | -86.23250 | 29934 ft | 249 kts | 279° |
| 2026-05-07 02:33 | 34.01807 | -86.25251 | 29972 ft | 249 kts | 278° |
| 2026-05-07 02:34 | 34.02300 | -86.27252 | 29968 ft | 249 kts | 278° |
| 2026-05-07 02:34 | 34.02790 | -86.29253 | 29959 ft | 248 kts | 278° |
| 2026-05-07 02:34 | 34.03276 | -86.31242 | 29972 ft | 247 kts | 278° |
| 2026-05-07 02:34 | 34.03765 | -86.33229 | 29975 ft | 248 kts | 279° |
| 2026-05-07 02:35 | 34.04256 | -86.35219 | 29971 ft | 248 kts | 278° |
| 2026-05-07 02:35 | 34.04742 | -86.37211 | 29970 ft | 247 kts | 278° |
| 2026-05-07 02:35 | 34.05230 | -86.39200 | 29971 ft | 248 kts | 278° |
| 2026-05-07 02:35 | 34.05718 | -86.41192 | 29971 ft | 248 kts | 278° |
| 2026-05-07 02:36 | 34.06205 | -86.43188 | 29967 ft | 248 kts | 278° |
| 2026-05-07 02:36 | 34.06693 | -86.45186 | 29967 ft | 249 kts | 278° |
| 2026-05-07 02:36 | 34.07182 | -86.47187 | 29963 ft | 249 kts | 278° |
| 2026-05-07 02:36 | 34.07672 | -86.49190 | 29961 ft | 249 kts | 278° |
| 2026-05-07 02:37 | 34.08159 | -86.51193 | 29961 ft | 249 kts | 278° |
| 2026-05-07 02:37 | 34.08648 | -86.53198 | 29958 ft | 249 kts | 278° |
| 2026-05-07 02:37 | 34.09135 | -86.55203 | 29955 ft | 249 kts | 278° |
| 2026-05-07 02:37 | 34.09623 | -86.57209 | 29950 ft | 249 kts | 277° |
| 2026-05-07 02:38 | 34.10109 | -86.59212 | 29955 ft | 249 kts | 277° |
| 2026-05-07 02:38 | 34.10594 | -86.61216 | 29955 ft | 249 kts | 277° |
| 2026-05-07 02:38 | 34.11081 | -86.63218 | 29958 ft | 249 kts | 277° |
| 2026-05-07 02:38 | 34.11559 | -86.65195 | 29962 ft | 249 kts | 277° |
| 2026-05-07 02:39 | 34.12051 | -86.67222 | 29962 ft | 249 kts | 277° |
| 2026-05-07 02:39 | 34.12535 | -86.69225 | 29965 ft | 248 kts | 277° |
| 2026-05-07 02:39 | 34.13020 | -86.71226 | 29971 ft | 248 kts | 277° |
| 2026-05-07 02:39 | 34.13504 | -86.73227 | 29971 ft | 248 kts | 277° |
| 2026-05-07 02:40 | 34.13981 | -86.75202 | 29973 ft | 248 kts | 277° |
| 2026-05-07 02:40 | 34.14463 | -86.77204 | 29976 ft | 248 kts | 277° |
| 2026-05-07 02:40 | 34.14946 | -86.79205 | 29980 ft | 248 kts | 277° |
| 2026-05-07 02:40 | 34.15429 | -86.81207 | 29981 ft | 248 kts | 277° |
| 2026-05-07 02:41 | 34.15911 | -86.83210 | 29982 ft | 248 kts | 277° |
| 2026-05-07 02:41 | 34.16392 | -86.85211 | 29980 ft | 248 kts | 277° |
| 2026-05-07 02:41 | 34.16872 | -86.87214 | 29980 ft | 248 kts | 277° |
| 2026-05-07 02:41 | 34.17354 | -86.89217 | 29983 ft | 248 kts | 277° |
| 2026-05-07 02:42 | 34.17834 | -86.91218 | 30018 ft | 248 kts | 276° |
| 2026-05-07 02:42 | 34.18310 | -86.93193 | 29993 ft | 242 kts | 276° |
| 2026-05-07 02:42 | 34.18775 | -86.95138 | 29997 ft | 241 kts | 275° |
| 2026-05-07 02:42 | 34.19235 | -86.97068 | 29994 ft | 238 kts | 275° |
| 2026-05-07 02:43 | 34.19693 | -86.98989 | 29989 ft | 238 kts | 275° |
| 2026-05-07 02:43 | 34.20153 | -87.00910 | 29988 ft | 238 kts | 275° |
| 2026-05-07 02:43 | 34.20610 | -87.02833 | 29984 ft | 238 kts | 275° |
| 2026-05-07 02:43 | 34.21070 | -87.04751 | 29982 ft | 238 kts | 275° |
| 2026-05-07 02:44 | 34.21528 | -87.06673 | 29982 ft | 238 kts | 275° |
| 2026-05-07 02:44 | 34.21986 | -87.08596 | 29980 ft | 238 kts | 275° |
| 2026-05-07 02:44 | 34.22445 | -87.10519 | 29977 ft | 239 kts | 275° |
| 2026-05-07 02:44 | 34.22903 | -87.12447 | 29974 ft | 239 kts | 275° |
| 2026-05-07 02:45 | 34.23362 | -87.14375 | 29970 ft | 239 kts | 275° |
| 2026-05-07 02:45 | 34.23820 | -87.16304 | 29969 ft | 239 kts | 275° |
| 2026-05-07 02:45 | 34.24279 | -87.18234 | 29965 ft | 239 kts | 275° |
| 2026-05-07 02:45 | 34.24737 | -87.20166 | 29954 ft | 239 kts | 275° |
| 2026-05-07 02:46 | 34.25193 | -87.22098 | 29952 ft | 239 kts | 275° |
| 2026-05-07 02:46 | 34.25652 | -87.24031 | 29952 ft | 239 kts | 275° |
| 2026-05-07 02:46 | 34.26109 | -87.25968 | 29949 ft | 240 kts | 275° |
| 2026-05-07 02:46 | 34.26566 | -87.27907 | 29952 ft | 240 kts | 275° |
| 2026-05-07 02:47 | 34.27023 | -87.29846 | 29954 ft | 240 kts | 275° |
| 2026-05-07 02:47 | 34.27483 | -87.31785 | 29953 ft | 240 kts | 275° |
| 2026-05-07 02:47 | 34.27941 | -87.33723 | 29957 ft | 239 kts | 275° |
| 2026-05-07 02:47 | 34.28397 | -87.35649 | 29958 ft | 237 kts | 275° |
| 2026-05-07 02:48 | 34.28848 | -87.37566 | 29950 ft | 237 kts | 275° |
| 2026-05-07 02:48 | 34.29300 | -87.39482 | 29957 ft | 237 kts | 275° |
| 2026-05-07 02:48 | 34.29747 | -87.41399 | 29957 ft | 237 kts | 275° |
| 2026-05-07 02:48 | 34.30195 | -87.43306 | 29960 ft | 236 kts | 275° |
| 2026-05-07 02:49 | 34.30646 | -87.45206 | 29956 ft | 235 kts | 275° |
| 2026-05-07 02:49 | 34.31089 | -87.47104 | 29955 ft | 234 kts | 274° |
| 2026-05-07 02:49 | 34.31531 | -87.49002 | 29956 ft | 234 kts | 274° |
| 2026-05-07 02:49 | 34.31975 | -87.50896 | 29956 ft | 234 kts | 274° |
| 2026-05-07 02:50 | 34.32421 | -87.52793 | 29957 ft | 235 kts | 274° |
| 2026-05-07 02:50 | 34.32864 | -87.54690 | 29957 ft | 234 kts | 274° |
| 2026-05-07 02:50 | 34.33308 | -87.56589 | 29955 ft | 235 kts | 274° |
| 2026-05-07 02:50 | 34.33751 | -87.58490 | 29957 ft | 235 kts | 274° |
| 2026-05-07 02:51 | 34.34196 | -87.60394 | 29960 ft | 235 kts | 274° |
| 2026-05-07 02:51 | 34.34641 | -87.62299 | 29959 ft | 235 kts | 274° |
| 2026-05-07 02:51 | 34.35086 | -87.64206 | 29960 ft | 236 kts | 274° |
| 2026-05-07 02:51 | 34.35529 | -87.66115 | 29959 ft | 236 kts | 275° |
| 2026-05-07 02:52 | 34.35973 | -87.68025 | 29951 ft | 236 kts | 275° |
| 2026-05-07 02:52 | 34.36419 | -87.69933 | 29952 ft | 236 kts | 274° |
| 2026-05-07 02:52 | 34.36856 | -87.71816 | 29969 ft | 235 kts | 274° |
| 2026-05-07 02:52 | 34.37296 | -87.73703 | 29966 ft | 232 kts | 274° |
| 2026-05-07 02:53 | 34.37731 | -87.75581 | 29964 ft | 232 kts | 274° |
| 2026-05-07 02:53 | 34.38165 | -87.77463 | 29964 ft | 232 kts | 274° |
| 2026-05-07 02:53 | 34.38601 | -87.79347 | 29964 ft | 232 kts | 274° |
| 2026-05-07 02:53 | 34.39036 | -87.81232 | 29963 ft | 233 kts | 274° |
| 2026-05-07 02:54 | 34.39471 | -87.83117 | 29964 ft | 232 kts | 274° |
| 2026-05-07 02:54 | 34.39909 | -87.85001 | 29966 ft | 232 kts | 274° |
| 2026-05-07 02:54 | 34.40344 | -87.86886 | 29965 ft | 233 kts | 274° |
| 2026-05-07 02:54 | 34.40778 | -87.88775 | 29974 ft | 233 kts | 274° |
| 2026-05-07 02:55 | 34.41215 | -87.90661 | 29977 ft | 233 kts | 274° |
| 2026-05-07 02:55 | 34.41648 | -87.92547 | 29977 ft | 232 kts | 274° |
| 2026-05-07 02:55 | 34.42081 | -87.94432 | 29977 ft | 232 kts | 274° |
| 2026-05-07 02:55 | 34.42515 | -87.96317 | 29978 ft | 232 kts | 274° |
| 2026-05-07 02:56 | 34.42949 | -87.98201 | 29979 ft | 233 kts | 274° |
| 2026-05-07 02:56 | 34.43382 | -88.00084 | 29976 ft | 231 kts | 274° |
| 2026-05-07 02:56 | 34.43812 | -88.01948 | 29970 ft | 229 kts | 274° |
| 2026-05-07 02:56 | 34.44236 | -88.03798 | 29967 ft | 227 kts | 274° |
| 2026-05-07 02:57 | 34.44656 | -88.05638 | 29959 ft | 227 kts | 273° |
| 2026-05-07 02:57 | 34.45077 | -88.07487 | 29869 ft | 230 kts | 274° |
| 2026-05-07 02:57 | 34.45505 | -88.09380 | 29596 ft | 233 kts | 274° |
| 2026-05-07 02:57 | 34.45939 | -88.11238 | 29285 ft | 224 kts | 274° |
| 2026-05-07 02:58 | 34.46353 | -88.13031 | 29008 ft | 219 kts | 274° |
| 2026-05-07 02:58 | 34.46754 | -88.14818 | 28700 ft | 221 kts | 274° |
| 2026-05-07 02:58 | 34.47162 | -88.16627 | 28406 ft | 224 kts | 274° |
| 2026-05-07 02:58 | 34.47579 | -88.18455 | 28114 ft | 226 kts | 274° |
| 2026-05-07 02:59 | 34.48000 | -88.20299 | 27815 ft | 228 kts | 275° |
| 2026-05-07 02:59 | 34.48423 | -88.22155 | 27513 ft | 229 kts | 275° |
| 2026-05-07 02:59 | 34.48844 | -88.24006 | 27213 ft | 227 kts | 275° |
| 2026-05-07 02:59 | 34.49264 | -88.25850 | 26912 ft | 227 kts | 275° |
| 2026-05-07 03:00 | 34.49682 | -88.27686 | 26611 ft | 225 kts | 275° |
| 2026-05-07 03:00 | 34.50097 | -88.29517 | 26317 ft | 226 kts | 275° |
| 2026-05-07 03:00 | 34.50514 | -88.31371 | 26015 ft | 230 kts | 275° |
| 2026-05-07 03:00 | 34.50940 | -88.33248 | 25705 ft | 232 kts | 275° |
| 2026-05-07 03:01 | 34.51370 | -88.35139 | 25408 ft | 232 kts | 275° |
| 2026-05-07 03:01 | 34.51797 | -88.37026 | 25107 ft | 232 kts | 275° |
| 2026-05-07 03:01 | 34.52220 | -88.38905 | 24800 ft | 231 kts | 275° |
| 2026-05-07 03:01 | 34.52640 | -88.40760 | 24499 ft | 231 kts | 276° |
| 2026-05-07 03:02 | 34.53063 | -88.42640 | 24195 ft | 232 kts | 276° |
| 2026-05-07 03:02 | 34.53489 | -88.44537 | 23889 ft | 234 kts | 276° |
| 2026-05-07 03:02 | 34.53920 | -88.46446 | 23576 ft | 236 kts | 276° |
| 2026-05-07 03:02 | 34.54352 | -88.48370 | 23243 ft | 237 kts | 276° |
| 2026-05-07 03:03 | 34.54787 | -88.50305 | 22922 ft | 238 kts | 276° |
| 2026-05-07 03:03 | 34.55224 | -88.52245 | 22602 ft | 239 kts | 276° |
| 2026-05-07 03:03 | 34.55660 | -88.54187 | 22287 ft | 239 kts | 277° |
| 2026-05-07 03:03 | 34.56097 | -88.56127 | 21968 ft | 239 kts | 277° |
| 2026-05-07 03:04 | 34.56531 | -88.58070 | 21657 ft | 239 kts | 277° |
| 2026-05-07 03:04 | 34.56967 | -88.60014 | 21342 ft | 239 kts | 277° |
| 2026-05-07 03:04 | 34.57402 | -88.61958 | 21028 ft | 239 kts | 277° |
| 2026-05-07 03:04 | 34.57838 | -88.63904 | 20713 ft | 239 kts | 277° |
| 2026-05-07 03:05 | 34.58274 | -88.65855 | 20398 ft | 240 kts | 277° |
| 2026-05-07 03:05 | 34.58709 | -88.67811 | 20082 ft | 240 kts | 277° |
| 2026-05-07 03:05 | 34.59145 | -88.69768 | 19764 ft | 241 kts | 277° |
| 2026-05-07 03:05 | 34.59583 | -88.71730 | 19446 ft | 241 kts | 277° |
| 2026-05-07 03:06 | 34.60021 | -88.73694 | 19124 ft | 241 kts | 277° |
| 2026-05-07 03:06 | 34.60460 | -88.75659 | 18805 ft | 242 kts | 277° |
| 2026-05-07 03:06 | 34.60898 | -88.77637 | 18487 ft | 244 kts | 277° |
| 2026-05-07 03:06 | 34.61339 | -88.79628 | 18147 ft | 245 kts | 277° |
| 2026-05-07 03:07 | 34.61785 | -88.81637 | 17749 ft | 247 kts | 277° |
| 2026-05-07 03:07 | 34.62233 | -88.83657 | 17409 ft | 249 kts | 278° |
| 2026-05-07 03:07 | 34.62685 | -88.85700 | 17086 ft | 252 kts | 277° |
| 2026-05-07 03:07 | 34.63143 | -88.87768 | 16750 ft | 255 kts | 278° |
| 2026-05-07 03:08 | 34.63606 | -88.89850 | 16413 ft | 255 kts | 278° |
| 2026-05-07 03:08 | 34.64065 | -88.91928 | 16078 ft | 255 kts | 278° |
| 2026-05-07 03:08 | 34.64523 | -88.94010 | 15741 ft | 256 kts | 278° |
| 2026-05-07 03:08 | 34.64983 | -88.96100 | 15405 ft | 257 kts | 278° |
| 2026-05-07 03:09 | 34.65447 | -88.98202 | 15066 ft | 259 kts | 278° |
| 2026-05-07 03:09 | 34.65912 | -89.00312 | 14727 ft | 259 kts | 278° |
| 2026-05-07 03:09 | 34.66380 | -89.02430 | 14385 ft | 260 kts | 279° |
| 2026-05-07 03:09 | 34.66847 | -89.04558 | 14044 ft | 261 kts | 279° |
| 2026-05-07 03:10 | 34.67316 | -89.06693 | 13689 ft | 262 kts | 279° |
| 2026-05-07 03:10 | 34.67781 | -89.08824 | 13332 ft | 260 kts | 278° |
| 2026-05-07 03:10 | 34.68198 | -89.10982 | 12983 ft | 265 kts | 278° |
| 2026-05-07 03:10 | 34.68616 | -89.13169 | 12633 ft | 266 kts | 278° |
| 2026-05-07 03:11 | 34.69040 | -89.15354 | 12286 ft | 266 kts | 278° |
| 2026-05-07 03:11 | 34.69464 | -89.17541 | 11933 ft | 266 kts | 279° |
| 2026-05-07 03:11 | 34.69886 | -89.19734 | 11583 ft | 266 kts | 279° |
| 2026-05-07 03:11 | 34.70306 | -89.21915 | 11233 ft | 264 kts | 279° |
| 2026-05-07 03:12 | 34.70725 | -89.24081 | 10888 ft | 261 kts | 279° |
| 2026-05-07 03:12 | 34.71125 | -89.26144 | 10555 ft | 243 kts | 279° |
| 2026-05-07 03:12 | 34.71497 | -89.28148 | 10235 ft | 245 kts | 278° |
| 2026-05-07 03:12 | 34.71712 | -89.29497 | 10039 ft | 245 kts | 277° |
| 2026-05-07 03:13 | 34.72008 | -89.31458 | 9229 ft | 229 kts | 277° |
| 2026-05-07 03:13 | 34.72286 | -89.33322 | 8668 ft | 225 kts | 277° |
| 2026-05-07 03:13 | 34.72568 | -89.35280 | 8176 ft | 241 kts | 277° |
| 2026-05-07 03:13 | 34.72855 | -89.37287 | 7685 ft | 241 kts | 277° |
| 2026-05-07 03:14 | 34.73135 | -89.39293 | 7212 ft | 241 kts | 277° |
| 2026-05-07 03:14 | 34.73502 | -89.41949 | 6603 ft | 238 kts | 277° |
| 2026-05-07 03:14 | 34.73962 | -89.45253 | 5777 ft | 238 kts | 278° |
| 2026-05-07 03:15 | 34.74225 | -89.47250 | 5290 ft | 240 kts | 278° |
| 2026-05-07 03:15 | 34.74467 | -89.49238 | 4952 ft | 228 kts | 277° |
| 2026-05-07 03:15 | 34.74677 | -89.51052 | 4943 ft | 209 kts | 277° |
| 2026-05-07 03:15 | 34.74874 | -89.52795 | 4940 ft | 207 kts | 277° |
| 2026-05-07 03:16 | 34.75073 | -89.54530 | 4942 ft | 207 kts | 277° |
| 2026-05-07 03:16 | 34.75271 | -89.56263 | 4945 ft | 206 kts | 277° |
| 2026-05-07 03:16 | 34.75476 | -89.57988 | 4947 ft | 206 kts | 277° |
| 2026-05-07 03:16 | 34.75678 | -89.59705 | 4947 ft | 205 kts | 277° |
| 2026-05-07 03:17 | 34.75882 | -89.61425 | 4951 ft | 206 kts | 278° |
| 2026-05-07 03:17 | 34.76085 | -89.63149 | 4952 ft | 207 kts | 278° |
| 2026-05-07 03:17 | 34.76288 | -89.64879 | 4953 ft | 207 kts | 278° |
| 2026-05-07 03:17 | 34.76489 | -89.66583 | 4955 ft | 205 kts | 277° |
| 2026-05-07 03:18 | 34.76690 | -89.68294 | 4944 ft | 204 kts | 278° |
| 2026-05-07 03:18 | 34.76892 | -89.70031 | 4692 ft | 208 kts | 277° |
| 2026-05-07 03:18 | 34.77070 | -89.71773 | 4443 ft | 205 kts | 278° |
| 2026-05-07 03:18 | 34.77255 | -89.73506 | 4189 ft | 210 kts | 278° |
| 2026-05-07 03:19 | 34.77437 | -89.75277 | 3944 ft | 211 kts | 277° |
| 2026-05-07 03:19 | 34.77605 | -89.77049 | 3695 ft | 211 kts | 278° |
| 2026-05-07 03:19 | 34.77761 | -89.78833 | 3446 ft | 213 kts | 277° |
| 2026-05-07 03:19 | 34.77870 | -89.80627 | 3203 ft | 214 kts | 277° |
| 2026-05-07 03:20 | 34.78004 | -89.82442 | 2977 ft | 215 kts | 278° |
| 2026-05-07 03:20 | 34.78132 | -89.84223 | 2967 ft | 211 kts | 278° |
| 2026-05-07 03:20 | 34.78272 | -89.86021 | 2975 ft | 215 kts | 278° |
| 2026-05-07 03:20 | 34.78409 | -89.87840 | 2976 ft | 216 kts | 278° |
| 2026-05-07 03:21 | 34.78548 | -89.89663 | 2977 ft | 216 kts | 278° |
| 2026-05-07 03:21 | 34.78717 | -89.91463 | 2965 ft | 211 kts | 287° |
| 2026-05-07 03:21 | 34.79531 | -89.92874 | 2967 ft | 204 kts | 324° |
| 2026-05-07 03:21 | 34.80691 | -89.93875 | 2973 ft | 205 kts | 328° |
| 2026-05-07 03:22 | 34.81854 | -89.94864 | 2974 ft | 201 kts | 328° |
| 2026-05-07 03:22 | 34.82963 | -89.95816 | 2965 ft | 191 kts | 327° |
| 2026-05-07 03:22 | 34.84030 | -89.96725 | 2985 ft | 181 kts | 328° |
| 2026-05-07 03:22 | 34.85065 | -89.97609 | 2989 ft | 181 kts | 328° |
| 2026-05-07 03:23 | 34.86112 | -89.98428 | 3003 ft | 174 kts | 343° |
| 2026-05-07 03:23 | 34.87307 | -89.98410 | 2975 ft | 173 kts | 6° |
| 2026-05-07 03:23 | 34.88514 | -89.98399 | 2979 ft | 174 kts | 1° |
| 2026-05-07 03:23 | 34.89740 | -89.98416 | 2849 ft | 179 kts | 1° |
| 2026-05-07 03:24 | 34.90973 | -89.98446 | 2627 ft | 175 kts | 2° |
| 2026-05-07 03:24 | 34.92128 | -89.98476 | 2405 ft | 156 kts | 2° |
| 2026-05-07 03:24 | 34.93134 | -89.98493 | 2203 ft | 134 kts | 4° |
| 2026-05-07 03:24 | 34.93938 | -89.98517 | 2045 ft | 100 kts | 3° |
| 2026-05-07 03:25 | 34.94596 | -89.98522 | 1917 ft | 89 kts | 5° |
| 2026-05-07 03:25 | 34.95199 | -89.98538 | 1806 ft | 87 kts | 5° |
| 2026-05-07 03:25 | 34.95810 | -89.98554 | 1689 ft | 89 kts | 5° |
| 2026-05-07 03:25 | 34.96445 | -89.98563 | 1569 ft | 92 kts | 5° |
| 2026-05-07 03:26 | 34.97102 | -89.98577 | 1437 ft | 96 kts | 3° |
| 2026-05-07 03:26 | 34.97775 | -89.98582 | 1296 ft | 99 kts | 3° |
| 2026-05-07 03:26 | 34.98466 | -89.98599 | 1207 ft | 97 kts | 4° |
| 2026-05-07 03:26 | 34.99153 | -89.98606 | 1120 ft | 100 kts | 1° |
| 2026-05-07 03:27 | 34.99853 | -89.98612 | 992 ft | 103 kts | 0° |
| 2026-05-07 03:27 | 35.00562 | -89.98646 | 877 ft | 103 kts | 0° |
| 2026-05-07 03:27 | 35.01269 | -89.98658 | 733 ft | 102 kts | 359° |
| 2026-05-07 03:27 | 35.01960 | -89.98684 | 604 ft | 96 kts | 2° |
| 2026-05-07 03:28 | 35.02612 | -89.98693 | 453 ft | 93 kts | 2° |
| 2026-05-07 03:28 | 35.03253 | -89.98707 | 331 ft | 90 kts | 358° |
| 2026-05-07 03:28 | 35.03805 | -89.98720 | 306 ft | 67 kts | 360° |
| 2026-05-07 03:28 | 35.04226 | -89.98729 | 294 ft | 52 kts | 358° |
| 2026-05-07 03:29 | 35.04483 | -89.98718 | 291 ft | 25 kts | 10° |
| 2026-05-07 03:29 | 35.04602 | -89.98663 | 292 ft | 16 kts | 32° |
| 2026-05-07 03:29 | 35.04634 | -89.98637 | 291 ft | 0 kts | 32° |
| 2026-05-07 03:29 | 35.04635 | -89.98637 | 291 ft | 0 kts | 33° |
| 2026-05-07 03:30 | 35.04686 | -89.98605 | 294 ft | 22 kts | 10° |
| 2026-05-07 03:30 | 35.04827 | -89.98607 | 292 ft | 19 kts | 359° |
| 2026-05-07 03:30 | 35.04950 | -89.98606 | 292 ft | 17 kts | 11° |
| 2026-05-07 03:30 | 35.05065 | -89.98548 | 289 ft | 18 kts | 26° |
| 2026-05-07 03:31 | 35.05182 | -89.98514 | 288 ft | 17 kts | 2° |
| 2026-05-07 03:31 | 35.05312 | -89.98510 | 281 ft | 16 kts | 1° |
| 2026-05-07 03:31 | 35.05418 | -89.98509 | 279 ft | 18 kts | 358° |
| 2026-05-07 03:31 | 35.05550 | -89.98508 | 280 ft | 17 kts | 10° |
| 2026-05-07 03:32 | 35.05567 | -89.98411 | 282 ft | 10 kts | 102° |
| 2026-05-07 03:32 | 35.05517 | -89.98355 | 282 ft | 11 kts | 145° |
| 2026-05-07 03:32 | 35.05472 | -89.98279 | 284 ft | 9 kts | 127° |
| 2026-05-07 03:32 | 35.05465 | -89.98245 | 285 ft | 0 kts | 94° |